sensor_id;sensor_type;location;lat;lon;timestamp;P1;durP1;ratioP1;P2;durP2;ratioP2
33403;SDS011;19751;40.274;18.268;2023-06-22T00:01:02;8.68;;;6.88;;
33403;SDS011;19751;40.274;18.268;2023-06-22T00:03:27;8.02;;;7.03;;
33403;SDS011;19751;40.274;18.268;2023-06-22T00:05:53;8.27;;;6.68;;
33403;SDS011;19751;40.274;18.268;2023-06-22T00:08:18;8.18;;;6.20;;
33403;SDS011;19751;40.274;18.268;2023-06-22T00:10:44;8.23;;;6.68;;
33403;SDS011;19751;40.274;18.268;2023-06-22T00:13:11;7.07;;;6.47;;
33403;SDS011;19751;40.274;18.268;2023-06-22T00:15:37;7.75;;;6.63;;
33403;SDS011;19751;40.274;18.268;2023-06-22T00:18:09;7.22;;;6.45;;
33403;SDS011;19751;40.274;18.268;2023-06-22T00:20:36;7.47;;;6.63;;
33403;SDS011;19751;40.274;18.268;2023-06-22T00:23:04;9.05;;;6.80;;
33403;SDS011;19751;40.274;18.268;2023-06-22T00:25:35;8.27;;;6.38;;
33403;SDS011;19751;40.274;18.268;2023-06-22T00:28:01;8.32;;;6.00;;
33403;SDS011;19751;40.274;18.268;2023-06-22T00:30:27;7.68;;;6.80;;
33403;SDS011;19751;40.274;18.268;2023-06-22T00:32:53;9.05;;;6.68;;
33403;SDS011;19751;40.274;18.268;2023-06-22T00:35:18;8.25;;;7.45;;
33403;SDS011;19751;40.274;18.268;2023-06-22T00:37:44;8.50;;;6.70;;
33403;SDS011;19751;40.274;18.268;2023-06-22T00:40:09;11.32;;;7.20;;
33403;SDS011;19751;40.274;18.268;2023-06-22T00:42:37;8.73;;;6.50;;
33403;SDS011;19751;40.274;18.268;2023-06-22T00:45:04;8.00;;;6.90;;
33403;SDS011;19751;40.274;18.268;2023-06-22T00:47:30;11.52;;;7.80;;
33403;SDS011;19751;40.274;18.268;2023-06-22T00:49:56;8.63;;;7.30;;
33403;SDS011;19751;40.274;18.268;2023-06-22T00:52:22;9.05;;;7.95;;
33403;SDS011;19751;40.274;18.268;2023-06-22T00:54:52;9.18;;;7.32;;
33403;SDS011;19751;40.274;18.268;2023-06-22T00:57:18;9.32;;;7.45;;
33403;SDS011;19751;40.274;18.268;2023-06-22T00:59:45;7.45;;;6.63;;
33403;SDS011;19751;40.274;18.268;2023-06-22T01:02:13;8.75;;;7.45;;
33403;SDS011;19751;40.274;18.268;2023-06-22T01:04:39;7.32;;;6.30;;
33403;SDS011;19751;40.274;18.268;2023-06-22T01:07:21;8.43;;;7.53;;
33403;SDS011;19751;40.274;18.268;2023-06-22T01:10:18;8.15;;;7.35;;
33403;SDS011;19751;40.274;18.268;2023-06-22T01:13:45;8.55;;;7.72;;
33403;SDS011;19751;40.274;18.268;2023-06-22T01:16:15;9.05;;;8.25;;
33403;SDS011;19751;40.274;18.268;2023-06-22T01:18:45;7.57;;;6.88;;
33403;SDS011;19751;40.274;18.268;2023-06-22T01:21:16;8.45;;;6.72;;
33403;SDS011;19751;40.274;18.268;2023-06-22T01:26:47;8.35;;;7.18;;
33403;SDS011;19751;40.274;18.268;2023-06-22T01:29:25;12.25;;;7.20;;
33403;SDS011;19751;40.274;18.268;2023-06-22T01:31:53;7.53;;;6.85;;
33403;SDS011;19751;40.274;18.268;2023-06-22T01:34:20;8.13;;;7.43;;
33403;SDS011;19751;40.274;18.268;2023-06-22T01:36:48;9.45;;;8.32;;
33403;SDS011;19751;40.274;18.268;2023-06-22T01:39:15;9.00;;;8.10;;
33403;SDS011;19751;40.274;18.268;2023-06-22T01:41:42;9.52;;;8.48;;
33403;SDS011;19751;40.274;18.268;2023-06-22T01:44:09;9.30;;;6.90;;
33403;SDS011;19751;40.274;18.268;2023-06-22T01:46:35;8.52;;;7.55;;
33403;SDS011;19751;40.274;18.268;2023-06-22T01:49:02;8.10;;;7.30;;
33403;SDS011;19751;40.274;18.268;2023-06-22T01:51:28;7.80;;;7.00;;
33403;SDS011;19751;40.274;18.268;2023-06-22T01:53:55;10.20;;;7.97;;
33403;SDS011;19751;40.274;18.268;2023-06-22T01:56:20;8.48;;;7.57;;
33403;SDS011;19751;40.274;18.268;2023-06-22T02:01:24;7.65;;;6.90;;
33403;SDS011;19751;40.274;18.268;2023-06-22T02:04:02;9.55;;;8.13;;
33403;SDS011;19751;40.274;18.268;2023-06-22T02:06:32;8.52;;;7.72;;
33403;SDS011;19751;40.274;18.268;2023-06-22T02:09:02;9.38;;;8.10;;
33403;SDS011;19751;40.274;18.268;2023-06-22T02:11:33;11.57;;;7.90;;
33403;SDS011;19751;40.274;18.268;2023-06-22T02:14:01;8.35;;;7.47;;
33403;SDS011;19751;40.274;18.268;2023-06-22T02:16:27;9.68;;;8.52;;
33403;SDS011;19751;40.274;18.268;2023-06-22T02:18:55;9.27;;;8.38;;
33403;SDS011;19751;40.274;18.268;2023-06-22T02:21:28;9.02;;;7.70;;
33403;SDS011;19751;40.274;18.268;2023-06-22T02:23:54;7.97;;;7.18;;
33403;SDS011;19751;40.274;18.268;2023-06-22T02:26:20;8.10;;;7.15;;
33403;SDS011;19751;40.274;18.268;2023-06-22T02:28:46;10.65;;;8.60;;
33403;SDS011;19751;40.274;18.268;2023-06-22T02:31:11;7.78;;;7.07;;
33403;SDS011;19751;40.274;18.268;2023-06-22T02:33:36;10.23;;;7.15;;
33403;SDS011;19751;40.274;18.268;2023-06-22T02:36:02;10.98;;;7.60;;
33403;SDS011;19751;40.274;18.268;2023-06-22T02:38:34;8.75;;;7.30;;
33403;SDS011;19751;40.274;18.268;2023-06-22T02:41:02;8.15;;;7.35;;
33403;SDS011;19751;40.274;18.268;2023-06-22T02:43:28;9.18;;;8.25;;
33403;SDS011;19751;40.274;18.268;2023-06-22T02:45:53;8.02;;;7.28;;
33403;SDS011;19751;40.274;18.268;2023-06-22T02:48:19;11.30;;;8.02;;
33403;SDS011;19751;40.274;18.268;2023-06-22T02:50:44;8.73;;;6.97;;
33403;SDS011;19751;40.274;18.268;2023-06-22T02:53:10;8.70;;;7.35;;
33403;SDS011;19751;40.274;18.268;2023-06-22T02:55:35;7.57;;;6.85;;
33403;SDS011;19751;40.274;18.268;2023-06-22T02:58:01;8.05;;;6.80;;
33403;SDS011;19751;40.274;18.268;2023-06-22T03:00:30;10.10;;;7.65;;
33403;SDS011;19751;40.274;18.268;2023-06-22T03:02:56;8.30;;;7.47;;
33403;SDS011;19751;40.274;18.268;2023-06-22T03:05:22;9.60;;;7.93;;
33403;SDS011;19751;40.274;18.268;2023-06-22T03:07:48;8.85;;;7.65;;
33403;SDS011;19751;40.274;18.268;2023-06-22T03:10:14;9.98;;;7.35;;
33403;SDS011;19751;40.274;18.268;2023-06-22T03:12:40;11.38;;;7.60;;
33403;SDS011;19751;40.274;18.268;2023-06-22T03:15:07;8.60;;;7.22;;
33403;SDS011;19751;40.274;18.268;2023-06-22T03:17:35;9.40;;;7.60;;
33403;SDS011;19751;40.274;18.268;2023-06-22T03:20:01;8.68;;;7.30;;
33403;SDS011;19751;40.274;18.268;2023-06-22T03:22:34;8.05;;;7.22;;
33403;SDS011;19751;40.274;18.268;2023-06-22T03:25:03;10.98;;;7.57;;
33403;SDS011;19751;40.274;18.268;2023-06-22T03:27:29;10.98;;;7.93;;
33403;SDS011;19751;40.274;18.268;2023-06-22T03:29:56;10.93;;;7.50;;
33403;SDS011;19751;40.274;18.268;2023-06-22T03:32:22;9.82;;;7.30;;
33403;SDS011;19751;40.274;18.268;2023-06-22T03:34:48;11.00;;;7.32;;
33403;SDS011;19751;40.274;18.268;2023-06-22T03:37:14;11.38;;;7.18;;
33403;SDS011;19751;40.274;18.268;2023-06-22T03:39:40;10.60;;;7.53;;
33403;SDS011;19751;40.274;18.268;2023-06-22T03:42:06;8.05;;;6.93;;
33403;SDS011;19751;40.274;18.268;2023-06-22T03:44:32;8.45;;;7.53;;
33403;SDS011;19751;40.274;18.268;2023-06-22T03:46:58;9.30;;;7.65;;
33403;SDS011;19751;40.274;18.268;2023-06-22T03:49:23;8.90;;;7.88;;
33403;SDS011;19751;40.274;18.268;2023-06-22T03:51:49;8.30;;;7.05;;
33403;SDS011;19751;40.274;18.268;2023-06-22T03:54:14;10.05;;;7.97;;
33403;SDS011;19751;40.274;18.268;2023-06-22T03:56:40;10.70;;;7.30;;
33403;SDS011;19751;40.274;18.268;2023-06-22T03:59:05;7.90;;;7.10;;
33403;SDS011;19751;40.274;18.268;2023-06-22T04:01:30;11.48;;;7.15;;
33403;SDS011;19751;40.274;18.268;2023-06-22T04:03:56;8.93;;;7.00;;
33403;SDS011;19751;40.274;18.268;2023-06-22T04:06:21;8.55;;;7.43;;
33403;SDS011;19751;40.274;18.268;2023-06-22T04:08:47;9.63;;;7.55;;
33403;SDS011;19751;40.274;18.268;2023-06-22T04:11:15;9.98;;;6.65;;
33403;SDS011;19751;40.274;18.268;2023-06-22T04:13:44;9.55;;;7.57;;
33403;SDS011;19751;40.274;18.268;2023-06-22T04:16:09;11.48;;;9.25;;
33403;SDS011;19751;40.274;18.268;2023-06-22T04:18:35;15.88;;;9.75;;
33403;SDS011;19751;40.274;18.268;2023-06-22T04:21:01;17.70;;;12.35;;
33403;SDS011;19751;40.274;18.268;2023-06-22T04:23:27;16.58;;;11.82;;
33403;SDS011;19751;40.274;18.268;2023-06-22T04:25:53;13.77;;;10.00;;
33403;SDS011;19751;40.274;18.268;2023-06-22T04:28:18;15.18;;;9.10;;
33403;SDS011;19751;40.274;18.268;2023-06-22T04:30:44;9.80;;;8.27;;
33403;SDS011;19751;40.274;18.268;2023-06-22T04:33:15;12.25;;;8.05;;
33403;SDS011;19751;40.274;18.268;2023-06-22T04:35:41;8.23;;;7.22;;
33403;SDS011;19751;40.274;18.268;2023-06-22T04:38:11;8.45;;;6.45;;
33403;SDS011;19751;40.274;18.268;2023-06-22T04:40:38;10.23;;;7.60;;
33403;SDS011;19751;40.274;18.268;2023-06-22T04:43:04;9.85;;;6.68;;
33403;SDS011;19751;40.274;18.268;2023-06-22T04:45:31;10.18;;;7.97;;
33403;SDS011;19751;40.274;18.268;2023-06-22T04:47:57;13.52;;;7.85;;
33403;SDS011;19751;40.274;18.268;2023-06-22T04:50:23;13.98;;;7.97;;
33403;SDS011;19751;40.274;18.268;2023-06-22T04:52:49;11.10;;;6.70;;
33403;SDS011;19751;40.274;18.268;2023-06-22T04:55:16;8.45;;;7.22;;
33403;SDS011;19751;40.274;18.268;2023-06-22T04:57:47;9.30;;;6.53;;
33403;SDS011;19751;40.274;18.268;2023-06-22T05:00:19;9.10;;;7.55;;
33403;SDS011;19751;40.274;18.268;2023-06-22T05:02:47;8.02;;;6.22;;
33403;SDS011;19751;40.274;18.268;2023-06-22T05:05:13;9.02;;;6.47;;
33403;SDS011;19751;40.274;18.268;2023-06-22T05:07:45;7.95;;;6.75;;
33403;SDS011;19751;40.274;18.268;2023-06-22T05:10:13;9.88;;;6.80;;
33403;SDS011;19751;40.274;18.268;2023-06-22T05:12:40;8.50;;;6.93;;
33403;SDS011;19751;40.274;18.268;2023-06-22T05:15:07;12.55;;;6.45;;
33403;SDS011;19751;40.274;18.268;2023-06-22T05:17:33;6.45;;;5.85;;
33403;SDS011;19751;40.274;18.268;2023-06-22T05:19:59;8.25;;;6.85;;
33403;SDS011;19751;40.274;18.268;2023-06-22T05:22:25;8.35;;;6.85;;
33403;SDS011;19751;40.274;18.268;2023-06-22T05:24:51;12.48;;;7.88;;
33403;SDS011;19751;40.274;18.268;2023-06-22T05:27:16;11.52;;;8.07;;
33403;SDS011;19751;40.274;18.268;2023-06-22T05:29:42;11.93;;;7.93;;
33403;SDS011;19751;40.274;18.268;2023-06-22T05:32:08;11.30;;;8.48;;
33403;SDS011;19751;40.274;18.268;2023-06-22T05:34:37;10.07;;;7.43;;
33403;SDS011;19751;40.274;18.268;2023-06-22T05:37:03;9.40;;;6.05;;
33403;SDS011;19751;40.274;18.268;2023-06-22T05:39:30;6.43;;;5.63;;
33403;SDS011;19751;40.274;18.268;2023-06-22T05:41:56;6.35;;;5.72;;
33403;SDS011;19751;40.274;18.268;2023-06-22T05:44:21;7.40;;;5.65;;
33403;SDS011;19751;40.274;18.268;2023-06-22T05:46:47;7.72;;;6.63;;
33403;SDS011;19751;40.274;18.268;2023-06-22T05:49:13;16.30;;;8.70;;
33403;SDS011;19751;40.274;18.268;2023-06-22T05:51:40;12.23;;;8.77;;
33403;SDS011;19751;40.274;18.268;2023-06-22T05:54:06;28.02;;;9.98;;
33403;SDS011;19751;40.274;18.268;2023-06-22T05:56:33;17.88;;;7.57;;
33403;SDS011;19751;40.274;18.268;2023-06-22T05:59:01;12.75;;;7.22;;
33403;SDS011;19751;40.274;18.268;2023-06-22T06:01:27;8.25;;;6.45;;
33403;SDS011;19751;40.274;18.268;2023-06-22T06:03:54;10.80;;;6.53;;
33403;SDS011;19751;40.274;18.268;2023-06-22T06:06:22;8.45;;;5.65;;
33403;SDS011;19751;40.274;18.268;2023-06-22T06:08:53;6.80;;;5.20;;
33403;SDS011;19751;40.274;18.268;2023-06-22T06:11:19;8.75;;;5.97;;
33403;SDS011;19751;40.274;18.268;2023-06-22T06:13:44;10.20;;;6.03;;
33403;SDS011;19751;40.274;18.268;2023-06-22T06:16:10;8.13;;;5.35;;
33403;SDS011;19751;40.274;18.268;2023-06-22T06:18:36;9.18;;;5.60;;
33403;SDS011;19751;40.274;18.268;2023-06-22T06:21:02;6.53;;;5.72;;
33403;SDS011;19751;40.274;18.268;2023-06-22T06:23:28;7.72;;;5.78;;
33403;SDS011;19751;40.274;18.268;2023-06-22T06:25:53;13.18;;;6.78;;
33403;SDS011;19751;40.274;18.268;2023-06-22T06:28:19;7.30;;;5.90;;
33403;SDS011;19751;40.274;18.268;2023-06-22T06:30:44;8.35;;;6.00;;
33403;SDS011;19751;40.274;18.268;2023-06-22T06:33:12;13.40;;;6.40;;
33403;SDS011;19751;40.274;18.268;2023-06-22T06:35:37;7.93;;;5.60;;
33403;SDS011;19751;40.274;18.268;2023-06-22T06:38:03;9.07;;;5.70;;
33403;SDS011;19751;40.274;18.268;2023-06-22T06:40:29;7.88;;;5.75;;
33403;SDS011;19751;40.274;18.268;2023-06-22T06:42:54;8.98;;;5.10;;
33403;SDS011;19751;40.274;18.268;2023-06-22T06:45:20;7.63;;;5.80;;
33403;SDS011;19751;40.274;18.268;2023-06-22T06:47:47;9.90;;;5.68;;
33403;SDS011;19751;40.274;18.268;2023-06-22T06:50:14;8.07;;;5.07;;
33403;SDS011;19751;40.274;18.268;2023-06-22T06:52:39;6.57;;;5.75;;
33403;SDS011;19751;40.274;18.268;2023-06-22T06:55:05;8.50;;;5.10;;
33403;SDS011;19751;40.274;18.268;2023-06-22T06:57:33;6.05;;;5.45;;
33403;SDS011;19751;40.274;18.268;2023-06-22T06:59:59;6.45;;;5.45;;
33403;SDS011;19751;40.274;18.268;2023-06-22T07:02:25;7.95;;;6.68;;
33403;SDS011;19751;40.274;18.268;2023-06-22T07:04:53;13.35;;;6.03;;
33403;SDS011;19751;40.274;18.268;2023-06-22T07:07:20;9.20;;;5.75;;
33403;SDS011;19751;40.274;18.268;2023-06-22T07:09:46;6.55;;;5.63;;
33403;SDS011;19751;40.274;18.268;2023-06-22T07:12:11;9.70;;;5.55;;
33403;SDS011;19751;40.274;18.268;2023-06-22T07:14:37;13.82;;;6.72;;
33403;SDS011;19751;40.274;18.268;2023-06-22T07:17:03;5.65;;;5.13;;
33403;SDS011;19751;40.274;18.268;2023-06-22T07:19:28;5.15;;;4.63;;
33403;SDS011;19751;40.274;18.268;2023-06-22T07:21:54;6.40;;;4.88;;
33403;SDS011;19751;40.274;18.268;2023-06-22T07:24:20;10.40;;;5.55;;
33403;SDS011;19751;40.274;18.268;2023-06-22T07:26:47;10.88;;;4.72;;
33403;SDS011;19751;40.274;18.268;2023-06-22T07:29:14;8.77;;;5.30;;
33403;SDS011;19751;40.274;18.268;2023-06-22T07:31:41;5.05;;;4.55;;
33403;SDS011;19751;40.274;18.268;2023-06-22T07:34:06;5.82;;;4.60;;
33403;SDS011;19751;40.274;18.268;2023-06-22T07:36:32;4.25;;;3.83;;
33403;SDS011;19751;40.274;18.268;2023-06-22T07:38:58;11.30;;;5.82;;
33403;SDS011;19751;40.274;18.268;2023-06-22T07:41:23;16.30;;;5.00;;
33403;SDS011;19751;40.274;18.268;2023-06-22T07:43:49;10.07;;;4.25;;
33403;SDS011;19751;40.274;18.268;2023-06-22T07:46:15;9.20;;;4.75;;
33403;SDS011;19751;40.274;18.268;2023-06-22T07:48:41;8.68;;;4.90;;
33403;SDS011;19751;40.274;18.268;2023-06-22T07:51:08;6.75;;;4.72;;
33403;SDS011;19751;40.274;18.268;2023-06-22T07:53:34;6.22;;;4.57;;
33403;SDS011;19751;40.274;18.268;2023-06-22T07:56:01;10.50;;;5.47;;
33403;SDS011;19751;40.274;18.268;2023-06-22T07:58:31;9.73;;;5.95;;
33403;SDS011;19751;40.274;18.268;2023-06-22T08:00:57;9.27;;;5.40;;
33403;SDS011;19751;40.274;18.268;2023-06-22T08:03:23;8.63;;;4.90;;
33403;SDS011;19751;40.274;18.268;2023-06-22T08:05:48;9.00;;;4.90;;
33403;SDS011;19751;40.274;18.268;2023-06-22T08:08:14;8.63;;;5.18;;
33403;SDS011;19751;40.274;18.268;2023-06-22T08:10:40;6.65;;;4.40;;
33403;SDS011;19751;40.274;18.268;2023-06-22T08:13:07;7.38;;;4.82;;
33403;SDS011;19751;40.274;18.268;2023-06-22T08:15:32;7.80;;;5.40;;
33403;SDS011;19751;40.274;18.268;2023-06-22T08:17:58;7.35;;;5.07;;
33403;SDS011;19751;40.274;18.268;2023-06-22T08:20:25;10.32;;;4.95;;
33403;SDS011;19751;40.274;18.268;2023-06-22T08:22:53;7.93;;;4.80;;
33403;SDS011;19751;40.274;18.268;2023-06-22T08:25:19;12.73;;;5.47;;
33403;SDS011;19751;40.274;18.268;2023-06-22T08:27:46;6.30;;;5.38;;
33403;SDS011;19751;40.274;18.268;2023-06-22T08:30:15;6.68;;;5.32;;
33403;SDS011;19751;40.274;18.268;2023-06-22T08:32:42;16.67;;;5.10;;
33403;SDS011;19751;40.274;18.268;2023-06-22T08:35:08;8.63;;;5.57;;
33403;SDS011;19751;40.274;18.268;2023-06-22T08:37:33;5.78;;;4.45;;
33403;SDS011;19751;40.274;18.268;2023-06-22T08:40:00;6.78;;;4.53;;
33403;SDS011;19751;40.274;18.268;2023-06-22T08:42:29;7.40;;;4.45;;
33403;SDS011;19751;40.274;18.268;2023-06-22T08:44:55;8.60;;;4.75;;
33403;SDS011;19751;40.274;18.268;2023-06-22T08:47:20;11.00;;;4.68;;
33403;SDS011;19751;40.274;18.268;2023-06-22T08:49:46;7.65;;;5.07;;
33403;SDS011;19751;40.274;18.268;2023-06-22T08:52:12;10.85;;;5.30;;
33403;SDS011;19751;40.274;18.268;2023-06-22T08:54:38;7.18;;;5.43;;
33403;SDS011;19751;40.274;18.268;2023-06-22T08:57:03;6.32;;;5.32;;
33403;SDS011;19751;40.274;18.268;2023-06-22T08:59:29;8.23;;;4.90;;
33403;SDS011;19751;40.274;18.268;2023-06-22T09:01:55;5.95;;;5.30;;
33403;SDS011;19751;40.274;18.268;2023-06-22T09:04:21;6.65;;;5.32;;
33403;SDS011;19751;40.274;18.268;2023-06-22T09:06:47;6.57;;;5.00;;
33403;SDS011;19751;40.274;18.268;2023-06-22T09:09:15;6.38;;;4.85;;
33403;SDS011;19751;40.274;18.268;2023-06-22T09:11:41;8.38;;;5.93;;
33403;SDS011;19751;40.274;18.268;2023-06-22T09:14:07;9.63;;;5.80;;
33403;SDS011;19751;40.274;18.268;2023-06-22T09:16:33;10.98;;;6.47;;
33403;SDS011;19751;40.274;18.268;2023-06-22T09:18:59;16.38;;;7.50;;
33403;SDS011;19751;40.274;18.268;2023-06-22T09:21:25;6.47;;;5.88;;
33403;SDS011;19751;40.274;18.268;2023-06-22T09:23:50;8.48;;;5.63;;
33403;SDS011;19751;40.274;18.268;2023-06-22T09:26:17;7.55;;;5.65;;
33403;SDS011;19751;40.274;18.268;2023-06-22T09:28:43;8.02;;;5.50;;
33403;SDS011;19751;40.274;18.268;2023-06-22T09:31:09;14.18;;;6.53;;
33403;SDS011;19751;40.274;18.268;2023-06-22T09:33:35;10.57;;;5.82;;
33403;SDS011;19751;40.274;18.268;2023-06-22T09:36:03;8.55;;;5.00;;
33403;SDS011;19751;40.274;18.268;2023-06-22T09:38:35;7.25;;;4.28;;
33403;SDS011;19751;40.274;18.268;2023-06-22T09:41:04;11.15;;;4.90;;
33403;SDS011;19751;40.274;18.268;2023-06-22T09:43:30;24.67;;;6.38;;
33403;SDS011;19751;40.274;18.268;2023-06-22T09:45:57;12.15;;;5.30;;
33403;SDS011;19751;40.274;18.268;2023-06-22T09:48:23;7.82;;;4.97;;
33403;SDS011;19751;40.274;18.268;2023-06-22T09:50:49;8.75;;;5.40;;
33403;SDS011;19751;40.274;18.268;2023-06-22T09:53:14;8.18;;;5.63;;
33403;SDS011;19751;40.274;18.268;2023-06-22T09:55:40;7.70;;;5.20;;
33403;SDS011;19751;40.274;18.268;2023-06-22T09:58:05;6.22;;;4.97;;
33403;SDS011;19751;40.274;18.268;2023-06-22T10:00:31;5.90;;;4.90;;
33403;SDS011;19751;40.274;18.268;2023-06-22T10:02:56;7.68;;;5.68;;
33403;SDS011;19751;40.274;18.268;2023-06-22T10:05:22;13.25;;;5.25;;
33403;SDS011;19751;40.274;18.268;2023-06-22T10:07:48;6.30;;;5.45;;
33403;SDS011;19751;40.274;18.268;2023-06-22T10:10:13;7.78;;;4.95;;
33403;SDS011;19751;40.274;18.268;2023-06-22T10:12:45;6.20;;;4.25;;
33403;SDS011;19751;40.274;18.268;2023-06-22T10:15:11;5.82;;;4.63;;
33403;SDS011;19751;40.274;18.268;2023-06-22T10:17:37;6.28;;;4.75;;
33403;SDS011;19751;40.274;18.268;2023-06-22T10:20:03;7.03;;;4.47;;
33403;SDS011;19751;40.274;18.268;2023-06-22T10:22:36;5.23;;;4.77;;
33403;SDS011;19751;40.274;18.268;2023-06-22T10:25:02;4.78;;;4.18;;
33403;SDS011;19751;40.274;18.268;2023-06-22T10:27:27;5.18;;;4.68;;
33403;SDS011;19751;40.274;18.268;2023-06-22T10:29:53;6.05;;;4.63;;
33403;SDS011;19751;40.274;18.268;2023-06-22T10:32:18;5.18;;;4.45;;
33403;SDS011;19751;40.274;18.268;2023-06-22T10:34:44;6.22;;;4.22;;
33403;SDS011;19751;40.274;18.268;2023-06-22T10:37:10;5.50;;;4.63;;
33403;SDS011;19751;40.274;18.268;2023-06-22T10:39:35;4.88;;;3.95;;
33403;SDS011;19751;40.274;18.268;2023-06-22T10:42:01;4.72;;;4.32;;
33403;SDS011;19751;40.274;18.268;2023-06-22T10:44:26;8.60;;;6.07;;
33403;SDS011;19751;40.274;18.268;2023-06-22T10:46:52;6.05;;;5.45;;
33403;SDS011;19751;40.274;18.268;2023-06-22T10:49:17;7.80;;;5.75;;
33403;SDS011;19751;40.274;18.268;2023-06-22T10:51:43;6.47;;;5.63;;
33403;SDS011;19751;40.274;18.268;2023-06-22T10:54:08;6.63;;;5.60;;
33403;SDS011;19751;40.274;18.268;2023-06-22T10:56:34;5.68;;;5.18;;
33403;SDS011;19751;40.274;18.268;2023-06-22T10:58:59;10.73;;;6.03;;
33403;SDS011;19751;40.274;18.268;2023-06-22T11:01:25;20.15;;;5.85;;
33403;SDS011;19751;40.274;18.268;2023-06-22T11:03:50;6.22;;;4.70;;
33403;SDS011;19751;40.274;18.268;2023-06-22T11:06:15;8.35;;;5.18;;
33403;SDS011;19751;40.274;18.268;2023-06-22T11:08:43;6.45;;;5.38;;
33403;SDS011;19751;40.274;18.268;2023-06-22T11:11:09;8.50;;;5.28;;
33403;SDS011;19751;40.274;18.268;2023-06-22T11:13:35;5.30;;;4.78;;
33403;SDS011;19751;40.274;18.268;2023-06-22T11:16:01;7.85;;;5.32;;
33403;SDS011;19751;40.274;18.268;2023-06-22T11:18:26;9.52;;;5.10;;
33403;SDS011;19751;40.274;18.268;2023-06-22T11:20:52;7.50;;;4.90;;
33403;SDS011;19751;40.274;18.268;2023-06-22T11:23:18;7.85;;;5.28;;
33403;SDS011;19751;40.274;18.268;2023-06-22T11:25:44;5.35;;;4.85;;
33403;SDS011;19751;40.274;18.268;2023-06-22T11:28:11;12.65;;;5.88;;
33403;SDS011;19751;40.274;18.268;2023-06-22T11:30:36;7.93;;;5.78;;
33403;SDS011;19751;40.274;18.268;2023-06-22T11:33:02;12.25;;;5.88;;
33403;SDS011;19751;40.274;18.268;2023-06-22T11:35:28;31.48;;;8.90;;
33403;SDS011;19751;40.274;18.268;2023-06-22T11:37:53;9.50;;;5.72;;
33403;SDS011;19751;40.274;18.268;2023-06-22T11:40:22;8.85;;;4.80;;
33403;SDS011;19751;40.274;18.268;2023-06-22T11:42:48;11.77;;;4.95;;
33403;SDS011;19751;40.274;18.268;2023-06-22T11:45:13;9.32;;;6.47;;
33403;SDS011;19751;40.274;18.268;2023-06-22T11:47:39;11.55;;;7.00;;
33403;SDS011;19751;40.274;18.268;2023-06-22T11:50:04;6.90;;;6.13;;
33403;SDS011;19751;40.274;18.268;2023-06-22T11:52:31;7.53;;;5.70;;
33403;SDS011;19751;40.274;18.268;2023-06-22T11:54:56;9.27;;;4.90;;
33403;SDS011;19751;40.274;18.268;2023-06-22T11:57:24;9.88;;;6.68;;
33403;SDS011;19751;40.274;18.268;2023-06-22T11:59:49;7.22;;;6.15;;
33403;SDS011;19751;40.274;18.268;2023-06-22T12:02:15;9.85;;;5.75;;
33403;SDS011;19751;40.274;18.268;2023-06-22T12:04:40;6.45;;;5.93;;
33403;SDS011;19751;40.274;18.268;2023-06-22T12:07:06;7.45;;;5.32;;
33403;SDS011;19751;40.274;18.268;2023-06-22T12:09:32;10.95;;;6.13;;
33403;SDS011;19751;40.274;18.268;2023-06-22T12:11:58;7.88;;;5.72;;
33403;SDS011;19751;40.274;18.268;2023-06-22T12:14:23;7.65;;;5.60;;
33403;SDS011;19751;40.274;18.268;2023-06-22T12:16:49;8.30;;;6.07;;
33403;SDS011;19751;40.274;18.268;2023-06-22T12:19:14;7.85;;;5.65;;
33403;SDS011;19751;40.274;18.268;2023-06-22T12:21:40;6.68;;;6.07;;
33403;SDS011;19751;40.274;18.268;2023-06-22T12:24:08;9.02;;;6.07;;
33403;SDS011;19751;40.274;18.268;2023-06-22T12:26:34;7.07;;;6.15;;
33403;SDS011;19751;40.274;18.268;2023-06-22T12:28:59;6.53;;;5.85;;
33403;SDS011;19751;40.274;18.268;2023-06-22T12:31:25;10.27;;;6.25;;
33403;SDS011;19751;40.274;18.268;2023-06-22T12:33:50;9.50;;;6.90;;
33403;SDS011;19751;40.274;18.268;2023-06-22T12:36:16;7.28;;;6.57;;
33403;SDS011;19751;40.274;18.268;2023-06-22T12:38:41;12.07;;;6.30;;
33403;SDS011;19751;40.274;18.268;2023-06-22T12:41:08;6.70;;;6.05;;
33403;SDS011;19751;40.274;18.268;2023-06-22T12:43:33;8.10;;;6.38;;
33403;SDS011;19751;40.274;18.268;2023-06-22T12:45:59;8.40;;;5.97;;
33403;SDS011;19751;40.274;18.268;2023-06-22T12:48:25;7.00;;;6.28;;
33403;SDS011;19751;40.274;18.268;2023-06-22T12:50:52;10.60;;;6.15;;
33403;SDS011;19751;40.274;18.268;2023-06-22T12:53:18;8.38;;;6.82;;
33403;SDS011;19751;40.274;18.268;2023-06-22T12:55:44;9.07;;;7.05;;
33403;SDS011;19751;40.274;18.268;2023-06-22T12:58:09;9.00;;;6.28;;
33403;SDS011;19751;40.274;18.268;2023-06-22T13:00:35;10.45;;;6.72;;
33403;SDS011;19751;40.274;18.268;2023-06-22T13:03:01;7.95;;;7.20;;
33403;SDS011;19751;40.274;18.268;2023-06-22T13:05:26;10.65;;;7.32;;
33403;SDS011;19751;40.274;18.268;2023-06-22T13:07:52;8.40;;;6.35;;
33403;SDS011;19751;40.274;18.268;2023-06-22T13:10:17;8.27;;;6.50;;
33403;SDS011;19751;40.274;18.268;2023-06-22T13:12:43;7.45;;;6.40;;
33403;SDS011;19751;40.274;18.268;2023-06-22T13:15:08;7.90;;;6.28;;
33403;SDS011;19751;40.274;18.268;2023-06-22T13:17:34;8.80;;;7.90;;
33403;SDS011;19751;40.274;18.268;2023-06-22T13:19:59;8.13;;;6.00;;
33403;SDS011;19751;40.274;18.268;2023-06-22T13:22:29;8.60;;;6.45;;
33403;SDS011;19751;40.274;18.268;2023-06-22T13:25:04;7.75;;;5.63;;
33403;SDS011;19751;40.274;18.268;2023-06-22T13:27:31;7.82;;;5.72;;
33403;SDS011;19751;40.274;18.268;2023-06-22T13:29:56;6.40;;;4.97;;
33403;SDS011;19751;40.274;18.268;2023-06-22T13:32:22;9.50;;;5.53;;
33403;SDS011;19751;40.274;18.268;2023-06-22T13:34:48;12.10;;;5.70;;
33403;SDS011;19751;40.274;18.268;2023-06-22T13:37:13;7.95;;;5.22;;
33403;SDS011;19751;40.274;18.268;2023-06-22T13:39:39;6.07;;;5.47;;
33403;SDS011;19751;40.274;18.268;2023-06-22T13:42:05;9.73;;;5.30;;
33403;SDS011;19751;40.274;18.268;2023-06-22T13:44:30;6.75;;;4.90;;
33403;SDS011;19751;40.274;18.268;2023-06-22T13:46:56;8.60;;;4.60;;
33403;SDS011;19751;40.274;18.268;2023-06-22T13:49:21;5.90;;;4.80;;
33403;SDS011;19751;40.274;18.268;2023-06-22T13:51:47;10.02;;;5.90;;
33403;SDS011;19751;40.274;18.268;2023-06-22T13:54:14;10.52;;;5.28;;
33403;SDS011;19751;40.274;18.268;2023-06-22T13:56:39;10.80;;;5.80;;
33403;SDS011;19751;40.274;18.268;2023-06-22T13:59:05;8.80;;;5.45;;
33403;SDS011;19751;40.274;18.268;2023-06-22T14:01:34;7.03;;;5.28;;
33403;SDS011;19751;40.274;18.268;2023-06-22T14:03:59;4.95;;;4.45;;
33403;SDS011;19751;40.274;18.268;2023-06-22T14:06:26;10.32;;;4.95;;
33403;SDS011;19751;40.274;18.268;2023-06-22T14:08:52;9.88;;;5.50;;
33403;SDS011;19751;40.274;18.268;2023-06-22T14:11:17;11.00;;;4.60;;
33403;SDS011;19751;40.274;18.268;2023-06-22T14:13:43;5.90;;;4.95;;
33403;SDS011;19751;40.274;18.268;2023-06-22T14:16:09;6.75;;;5.05;;
33403;SDS011;19751;40.274;18.268;2023-06-22T14:18:34;6.60;;;4.88;;
33403;SDS011;19751;40.274;18.268;2023-06-22T14:21:00;6.05;;;4.80;;
33403;SDS011;19751;40.274;18.268;2023-06-22T14:23:26;5.30;;;4.63;;
33403;SDS011;19751;40.274;18.268;2023-06-22T14:25:52;7.03;;;5.18;;
33403;SDS011;19751;40.274;18.268;2023-06-22T14:28:17;5.35;;;4.85;;
33403;SDS011;19751;40.274;18.268;2023-06-22T14:30:43;7.57;;;4.45;;
33403;SDS011;19751;40.274;18.268;2023-06-22T14:33:09;7.47;;;4.90;;